sensor_id;sensor_type;location;lat;lon;timestamp;pressure;altitude;pressure_sealevel;temperature;humidity
71105;BME280;58760;48.716;8.962;2023-04-15T00:00:07;95505.00;;;3.37;77.04
71105;BME280;58760;48.716;8.962;2023-04-15T00:02:34;95506.06;;;3.26;77.30
71105;BME280;58760;48.716;8.962;2023-04-15T00:05:00;95511.47;;;3.25;78.02
71105;BME280;58760;48.716;8.962;2023-04-15T00:07:25;95514.09;;;3.25;78.10
71105;BME280;58760;48.716;8.962;2023-04-15T00:09:51;95516.41;;;3.28;77.85
71105;BME280;58760;48.716;8.962;2023-04-15T00:12:19;95511.81;;;3.30;78.28
71105;BME280;58760;48.716;8.962;2023-04-15T00:14:46;95511.81;;;3.30;79.17
71105;BME280;58760;48.716;8.962;2023-04-15T00:17:11;95514.41;;;3.22;79.18
71105;BME280;58760;48.716;8.962;2023-04-15T00:19:37;95513.69;;;3.11;79.01
71105;BME280;58760;48.716;8.962;2023-04-15T00:22:03;95506.25;;;3.07;79.33
71105;BME280;58760;48.716;8.962;2023-04-15T00:24:28;95512.94;;;3.01;79.26
71105;BME280;58760;48.716;8.962;2023-04-15T00:26:55;95519.31;;;2.99;79.40
71105;BME280;58760;48.716;8.962;2023-04-15T00:29:21;95512.94;;;3.01;80.50
71105;BME280;58760;48.716;8.962;2023-04-15T00:31:46;95507.69;;;3.01;80.33
71105;BME280;58760;48.716;8.962;2023-04-15T00:34:12;95511.25;;;2.92;80.52
71105;BME280;58760;48.716;8.962;2023-04-15T00:36:37;95515.78;;;2.90;81.02
71105;BME280;58760;48.716;8.962;2023-04-15T00:39:03;95508.53;;;2.84;80.95
71105;BME280;58760;48.716;8.962;2023-04-15T00:41:29;95503.69;;;2.89;81.04
71105;BME280;58760;48.716;8.962;2023-04-15T00:43:56;95507.94;;;2.90;80.77
71105;BME280;58760;48.716;8.962;2023-04-15T00:46:21;95502.28;;;3.03;80.60
71105;BME280;58760;48.716;8.962;2023-04-15T00:48:47;95508.44;;;2.94;81.16
71105;BME280;58760;48.716;8.962;2023-04-15T00:51:13;95502.94;;;2.79;81.71
71105;BME280;58760;48.716;8.962;2023-04-15T00:53:39;95500.63;;;2.76;81.87
71105;BME280;58760;48.716;8.962;2023-04-15T00:56:05;95508.63;;;2.75;81.61
71105;BME280;58760;48.716;8.962;2023-04-15T00:58:31;95510.41;;;2.74;81.39
71105;BME280;58760;48.716;8.962;2023-04-15T01:00:57;95512.81;;;2.68;80.78
71105;BME280;58760;48.716;8.962;2023-04-15T01:03:23;95509.13;;;2.60;81.43
71105;BME280;58760;48.716;8.962;2023-04-15T01:05:49;95504.94;;;2.68;81.39
71105;BME280;58760;48.716;8.962;2023-04-15T01:08:15;95521.25;;;2.61;81.57
71105;BME280;58760;48.716;8.962;2023-04-15T01:10:40;95516.09;;;2.52;81.15
71105;BME280;58760;48.716;8.962;2023-04-15T01:13:06;95511.53;;;2.54;81.42
71105;BME280;58760;48.716;8.962;2023-04-15T01:15:32;95506.97;;;2.56;81.63
71105;BME280;58760;48.716;8.962;2023-04-15T01:18:01;95504.44;;;2.46;81.17
71105;BME280;58760;48.716;8.962;2023-04-15T01:20:28;95507.41;;;2.51;81.35
71105;BME280;58760;48.716;8.962;2023-04-15T01:22:54;95507.72;;;2.48;81.34
71105;BME280;58760;48.716;8.962;2023-04-15T01:25:31;95502.94;;;2.44;81.50
71105;BME280;58760;48.716;8.962;2023-04-15T01:27:59;95505.38;;;2.45;81.39
71105;BME280;58760;48.716;8.962;2023-04-15T01:30:25;95511.00;;;2.33;81.34
71105;BME280;58760;48.716;8.962;2023-04-15T01:32:52;95505.47;;;2.36;82.14
71105;BME280;58760;48.716;8.962;2023-04-15T01:35:17;95505.34;;;2.28;81.93
71105;BME280;58760;48.716;8.962;2023-04-15T01:37:43;95508.06;;;2.36;82.20
71105;BME280;58760;48.716;8.962;2023-04-15T01:40:09;95507.47;;;2.42;82.17
71105;BME280;58760;48.716;8.962;2023-04-15T01:42:35;95511.34;;;2.38;81.98
71105;BME280;58760;48.716;8.962;2023-04-15T01:45:02;95511.28;;;2.30;81.58
71105;BME280;58760;48.716;8.962;2023-04-15T01:47:27;95500.94;;;2.28;82.02
71105;BME280;58760;48.716;8.962;2023-04-15T01:49:53;95497.25;;;2.31;82.61
71105;BME280;58760;48.716;8.962;2023-04-15T01:52:18;95500.53;;;2.33;82.88
71105;BME280;58760;48.716;8.962;2023-04-15T01:54:43;95500.44;;;2.25;83.04
71105;BME280;58760;48.716;8.962;2023-04-15T01:57:09;95502.31;;;2.15;82.63
71105;BME280;58760;48.716;8.962;2023-04-15T01:59:35;95501.47;;;2.14;83.17
71105;BME280;58760;48.716;8.962;2023-04-15T02:02:01;95500.66;;;2.14;83.31
71105;BME280;58760;48.716;8.962;2023-04-15T02:04:27;95504.38;;;2.11;83.58
71105;BME280;58760;48.716;8.962;2023-04-15T02:06:53;95501.78;;;2.11;83.65
71105;BME280;58760;48.716;8.962;2023-04-15T02:09:18;95507.56;;;2.05;83.72
71105;BME280;58760;48.716;8.962;2023-04-15T02:11:44;95497.56;;;2.00;83.55
71105;BME280;58760;48.716;8.962;2023-04-15T02:14:10;95508.97;;;1.99;83.68
71105;BME280;58760;48.716;8.962;2023-04-15T02:16:35;95503.09;;;1.97;83.64
71105;BME280;58760;48.716;8.962;2023-04-15T02:19:01;95499.09;;;1.93;83.98
71105;BME280;58760;48.716;8.962;2023-04-15T02:21:26;95496.13;;;1.88;83.86
71105;BME280;58760;48.716;8.962;2023-04-15T02:23:52;95497.38;;;1.84;84.15
71105;BME280;58760;48.716;8.962;2023-04-15T02:26:18;95493.09;;;1.83;84.11
71105;BME280;58760;48.716;8.962;2023-04-15T02:28:45;95497.19;;;1.86;84.48
71105;BME280;58760;48.716;8.962;2023-04-15T02:31:11;95496.31;;;2.04;83.92
71105;BME280;58760;48.716;8.962;2023-04-15T02:33:36;95492.81;;;1.86;83.68
71105;BME280;58760;48.716;8.962;2023-04-15T02:36:02;95496.16;;;1.79;83.88
71105;BME280;58760;48.716;8.962;2023-04-15T02:38:28;95495.63;;;1.75;84.29
71105;BME280;58760;48.716;8.962;2023-04-15T02:40:53;95487.09;;;1.73;84.38
71105;BME280;58760;48.716;8.962;2023-04-15T02:43:19;95492.91;;;1.67;84.59
71105;BME280;58760;48.716;8.962;2023-04-15T02:45:45;95486.78;;;1.76;85.34
71105;BME280;58760;48.716;8.962;2023-04-15T02:48:11;95491.94;;;1.68;85.03
71105;BME280;58760;48.716;8.962;2023-04-15T02:50:37;95499.91;;;1.67;85.33
71105;BME280;58760;48.716;8.962;2023-04-15T02:53:06;95497.69;;;1.72;85.25
71105;BME280;58760;48.716;8.962;2023-04-15T02:55:31;95491.47;;;1.73;85.04
71105;BME280;58760;48.716;8.962;2023-04-15T02:57:57;95492.91;;;1.67;84.94
71105;BME280;58760;48.716;8.962;2023-04-15T03:00:24;95499.13;;;1.56;84.85
71105;BME280;58760;48.716;8.962;2023-04-15T03:02:50;95492.41;;;1.54;85.59
71105;BME280;58760;48.716;8.962;2023-04-15T03:05:21;95491.53;;;1.63;85.74
71105;BME280;58760;48.716;8.962;2023-04-15T03:07:49;95502.84;;;1.54;85.90
71105;BME280;58760;48.716;8.962;2023-04-15T03:10:15;95501.16;;;1.72;85.53
71105;BME280;58760;48.716;8.962;2023-04-15T03:12:40;95505.72;;;1.61;85.72
71105;BME280;58760;48.716;8.962;2023-04-15T03:15:06;95509.31;;;1.50;86.26
71105;BME280;58760;48.716;8.962;2023-04-15T03:17:32;95507.00;;;1.47;86.51
71105;BME280;58760;48.716;8.962;2023-04-15T03:19:57;95504.38;;;1.47;86.53
71105;BME280;58760;48.716;8.962;2023-04-15T03:22:23;95503.19;;;1.32;87.14
71105;BME280;58760;48.716;8.962;2023-04-15T03:24:49;95499.91;;;1.30;87.15
71105;BME280;58760;48.716;8.962;2023-04-15T03:27:14;95496.09;;;1.15;86.97
71105;BME280;58760;48.716;8.962;2023-04-15T03:29:40;95505.97;;;1.21;87.64
71105;BME280;58760;48.716;8.962;2023-04-15T03:32:05;95503.78;;;1.16;87.77
71105;BME280;58760;48.716;8.962;2023-04-15T03:34:31;95491.28;;;1.20;88.02
71105;BME280;58760;48.716;8.962;2023-04-15T03:36:56;95491.94;;;1.22;87.70
71105;BME280;58760;48.716;8.962;2023-04-15T03:39:22;95491.97;;;1.12;87.19
71105;BME280;58760;48.716;8.962;2023-04-15T03:41:47;95493.38;;;1.07;87.40
71105;BME280;58760;48.716;8.962;2023-04-15T03:44:13;95496.38;;;1.12;87.64
71105;BME280;58760;48.716;8.962;2023-04-15T03:46:38;95492.09;;;1.11;87.54
71105;BME280;58760;48.716;8.962;2023-04-15T03:49:05;95494.59;;;1.12;87.98
71105;BME280;58760;48.716;8.962;2023-04-15T03:51:31;95492.38;;;1.08;87.68
71105;BME280;58760;48.716;8.962;2023-04-15T03:53:56;95485.34;;;1.18;87.78
71105;BME280;58760;48.716;8.962;2023-04-15T03:56:23;95497.41;;;1.38;87.20
71105;BME280;58760;48.716;8.962;2023-04-15T03:58:48;95478.16;;;1.39;86.46
71105;BME280;58760;48.716;8.962;2023-04-15T04:01:14;95488.38;;;1.23;87.03
71105;BME280;58760;48.716;8.962;2023-04-15T04:03:39;95481.41;;;1.14;87.06
71105;BME280;58760;48.716;8.962;2023-04-15T04:06:05;95488.81;;;1.09;87.38
71105;BME280;58760;48.716;8.962;2023-04-15T04:08:30;95494.88;;;0.99;87.54
71105;BME280;58760;48.716;8.962;2023-04-15T04:10:56;95489.94;;;0.96;87.56
71105;BME280;58760;48.716;8.962;2023-04-15T04:13:22;95494.88;;;0.99;87.54
71105;BME280;58760;48.716;8.962;2023-04-15T04:15:47;95497.63;;;0.98;88.08
71105;BME280;58760;48.716;8.962;2023-04-15T04:18:13;95504.66;;;1.07;88.06
71105;BME280;58760;48.716;8.962;2023-04-15T04:20:38;95502.31;;;1.04;88.13
71105;BME280;58760;48.716;8.962;2023-04-15T04:23:04;95498.88;;;1.03;88.29
71105;BME280;58760;48.716;8.962;2023-04-15T04:25:29;95499.44;;;0.97;88.28
71105;BME280;58760;48.716;8.962;2023-04-15T04:27:55;95503.00;;;0.96;87.94
71105;BME280;58760;48.716;8.962;2023-04-15T04:30:20;95505.19;;;0.91;87.80
71105;BME280;58760;48.716;8.962;2023-04-15T04:32:46;95493.13;;;0.90;87.89
71105;BME280;58760;48.716;8.962;2023-04-15T04:35:12;95499.31;;;0.89;88.01
71105;BME280;58760;48.716;8.962;2023-04-15T04:37:37;95508.78;;;0.90;88.35
71105;BME280;58760;48.716;8.962;2023-04-15T04:40:03;95507.13;;;0.89;88.33
71105;BME280;58760;48.716;8.962;2023-04-15T04:42:28;95507.28;;;0.97;88.41
71105;BME280;58760;48.716;8.962;2023-04-15T04:44:54;95504.09;;;1.03;88.58
71105;BME280;58760;48.716;8.962;2023-04-15T04:47:19;95507.53;;;1.14;88.03
71105;BME280;58760;48.716;8.962;2023-04-15T04:49:45;95504.19;;;1.21;88.07
71105;BME280;58760;48.716;8.962;2023-04-15T04:52:11;95511.75;;;1.24;88.22
71105;BME280;58760;48.716;8.962;2023-04-15T04:54:37;95501.84;;;1.18;88.10
71105;BME280;58760;48.716;8.962;2023-04-15T04:57:02;95509.56;;;1.20;88.50
71105;BME280;58760;48.716;8.962;2023-04-15T04:59:28;95510.66;;;1.17;88.16
71105;BME280;58760;48.716;8.962;2023-04-15T05:05:15;95511.75;;;1.15;87.79
71105;BME280;58760;48.716;8.962;2023-04-15T05:07:40;95513.16;;;1.09;87.66
71105;BME280;58760;48.716;8.962;2023-04-15T05:10:06;95518.63;;;1.16;87.57
71105;BME280;58760;48.716;8.962;2023-04-15T05:12:32;95521.94;;;1.18;87.67
71105;BME280;58760;48.716;8.962;2023-04-15T05:14:58;95521.91;;;1.27;87.85
71105;BME280;58760;48.716;8.962;2023-04-15T05:17:23;95524.50;;;1.37;87.82
71105;BME280;58760;48.716;8.962;2023-04-15T05:19:48;95524.47;;;1.46;87.22
71105;BME280;58760;48.716;8.962;2023-04-15T05:22:14;95525.00;;;1.50;86.84
71105;BME280;58760;48.716;8.962;2023-04-15T05:24:39;95521.72;;;1.48;86.63
71105;BME280;58760;48.716;8.962;2023-04-15T05:27:05;95525.00;;;1.50;86.58
71105;BME280;58760;48.716;8.962;2023-04-15T05:29:32;95526.38;;;1.54;86.50
71105;BME280;58760;48.716;8.962;2023-04-15T05:31:58;95528.31;;;1.52;86.31
71105;BME280;58760;48.716;8.962;2023-04-15T05:34:23;95522.81;;;1.55;86.19
71105;BME280;58760;48.716;8.962;2023-04-15T05:36:49;95527.84;;;1.66;86.17
71105;BME280;58760;48.716;8.962;2023-04-15T05:39:14;95529.75;;;1.74;86.04
71105;BME280;58760;48.716;8.962;2023-04-15T05:41:40;95535.75;;;1.84;85.53
71105;BME280;58760;48.716;8.962;2023-04-15T05:44:06;95526.09;;;1.94;85.54
71105;BME280;58760;48.716;8.962;2023-04-15T05:46:31;95526.03;;;2.03;85.08
71105;BME280;58760;48.716;8.962;2023-04-15T05:48:56;95526.28;;;2.10;84.55
71105;BME280;58760;48.716;8.962;2023-04-15T05:51:22;95518.81;;;2.15;84.47
71105;BME280;58760;48.716;8.962;2023-04-15T05:53:47;95531.16;;;2.23;84.61
71105;BME280;58760;48.716;8.962;2023-04-15T05:56:13;95528.25;;;2.26;84.26
71105;BME280;58760;48.716;8.962;2023-04-15T05:58:38;95529.44;;;2.31;84.29
71105;BME280;58760;48.716;8.962;2023-04-15T06:01:03;95526.50;;;2.44;84.17
71105;BME280;58760;48.716;8.962;2023-04-15T06:03:30;95524.09;;;2.50;83.81
71105;BME280;58760;48.716;8.962;2023-04-15T06:05:55;95539.16;;;2.66;83.88
71105;BME280;58760;48.716;8.962;2023-04-15T06:08:21;95530.84;;;2.71;83.72
71105;BME280;58760;48.716;8.962;2023-04-15T06:10:47;95534.22;;;2.98;82.33
71105;BME280;58760;48.716;8.962;2023-04-15T06:13:12;95527.53;;;3.04;82.34
71105;BME280;58760;48.716;8.962;2023-04-15T06:15:38;95527.66;;;3.02;82.60
71105;BME280;58760;48.716;8.962;2023-04-15T06:18:03;95522.72;;;3.17;83.01
71105;BME280;58760;48.716;8.962;2023-04-15T06:20:29;95530.78;;;3.24;82.64
71105;BME280;58760;48.716;8.962;2023-04-15T06:22:55;95526.72;;;3.29;82.30
71105;BME280;58760;48.716;8.962;2023-04-15T06:25:20;95531.97;;;3.29;83.40
71105;BME280;58760;48.716;8.962;2023-04-15T06:27:46;95533.53;;;3.40;82.65
71105;BME280;58760;48.716;8.962;2023-04-15T06:30:12;95536.38;;;3.46;82.64
71105;BME280;58760;48.716;8.962;2023-04-15T06:32:37;95527.78;;;3.62;83.09
71105;BME280;58760;48.716;8.962;2023-04-15T06:35:03;95532.38;;;3.68;83.06
71105;BME280;58760;48.716;8.962;2023-04-15T06:37:29;95532.34;;;3.86;82.56
71105;BME280;58760;48.716;8.962;2023-04-15T06:39:54;95535.16;;;3.92;82.46
71105;BME280;58760;48.716;8.962;2023-04-15T06:42:20;95535.03;;;4.02;82.23
71105;BME280;58760;48.716;8.962;2023-04-15T06:44:45;95536.34;;;4.48;80.65
71105;BME280;58760;48.716;8.962;2023-04-15T06:47:11;95535.09;;;4.68;78.74
71105;BME280;58760;48.716;8.962;2023-04-15T06:49:39;95538.03;;;4.57;78.74
71105;BME280;58760;48.716;8.962;2023-04-15T06:52:04;95537.91;;;4.83;77.90
71105;BME280;58760;48.716;8.962;2023-04-15T06:54:30;95536.78;;;4.93;77.26
71105;BME280;58760;48.716;8.962;2023-04-15T06:56:55;95531.19;;;4.96;77.63
71105;BME280;58760;48.716;8.962;2023-04-15T06:59:21;95533.66;;;5.06;77.86
71105;BME280;58760;48.716;8.962;2023-04-15T07:01:46;95533.47;;;5.07;78.31
71105;BME280;58760;48.716;8.962;2023-04-15T07:04:12;95537.13;;;5.22;78.79
71105;BME280;58760;48.716;8.962;2023-04-15T07:06:37;95543.50;;;5.44;77.78
71105;BME280;58760;48.716;8.962;2023-04-15T07:09:03;95529.69;;;5.50;77.50
71105;BME280;58760;48.716;8.962;2023-04-15T07:11:29;95530.50;;;5.75;76.63
71105;BME280;58760;48.716;8.962;2023-04-15T07:13:56;95537.38;;;5.84;78.06
71105;BME280;58760;48.716;8.962;2023-04-15T07:16:22;95529.88;;;6.20;76.22
71105;BME280;58760;48.716;8.962;2023-04-15T07:18:47;95526.16;;;6.45;75.62
71105;BME280;58760;48.716;8.962;2023-04-15T07:21:13;95522.81;;;6.82;73.19
71105;BME280;58760;48.716;8.962;2023-04-15T07:23:38;95523.28;;;6.86;72.21
71105;BME280;58760;48.716;8.962;2023-04-15T07:26:04;95509.34;;;7.00;72.78
71105;BME280;58760;48.716;8.962;2023-04-15T07:28:29;95519.03;;;7.45;70.80
71105;BME280;58760;48.716;8.962;2023-04-15T07:30:55;95513.31;;;7.56;68.77
71105;BME280;58760;48.716;8.962;2023-04-15T07:33:24;95508.72;;;7.87;70.65
71105;BME280;58760;48.716;8.962;2023-04-15T07:35:49;95511.56;;;8.15;68.57
71105;BME280;58760;48.716;8.962;2023-04-15T07:38:15;95516.56;;;8.24;68.48
71105;BME280;58760;48.716;8.962;2023-04-15T07:40:41;95514.81;;;8.46;68.67
71105;BME280;58760;48.716;8.962;2023-04-15T07:43:06;95520.72;;;8.63;69.30
71105;BME280;58760;48.716;8.962;2023-04-15T07:45:33;95521.72;;;8.76;69.26
71105;BME280;58760;48.716;8.962;2023-04-15T07:48:00;95524.66;;;8.88;68.89
71105;BME280;58760;48.716;8.962;2023-04-15T07:50:26;95514.00;;;8.96;69.38
71105;BME280;58760;48.716;8.962;2023-04-15T07:52:51;95510.59;;;9.23;69.44
71105;BME280;58760;48.716;8.962;2023-04-15T07:55:17;95513.09;;;9.31;69.17
71105;BME280;58760;48.716;8.962;2023-04-15T07:57:45;95510.41;;;9.46;67.61
71105;BME280;58760;48.716;8.962;2023-04-15T08:00:12;95508.69;;;9.38;67.91
71105;BME280;58760;48.716;8.962;2023-04-15T08:02:38;95508.22;;;9.56;67.40
71105;BME280;58760;48.716;8.962;2023-04-15T08:05:03;95498.25;;;9.86;66.08
71105;BME280;58760;48.716;8.962;2023-04-15T08:07:29;95509.72;;;9.93;66.91
71105;BME280;58760;48.716;8.962;2023-04-15T08:09:55;95501.63;;;10.01;66.23
71105;BME280;58760;48.716;8.962;2023-04-15T08:12:20;95504.41;;;10.14;66.35
71105;BME280;58760;48.716;8.962;2023-04-15T08:14:46;95499.88;;;10.49;65.06
71105;BME280;58760;48.716;8.962;2023-04-15T08:17:11;95496.75;;;10.93;66.62
71105;BME280;58760;48.716;8.962;2023-04-15T08:19:37;95502.53;;;11.29;66.26
71105;BME280;58760;48.716;8.962;2023-04-15T08:22:03;95499.50;;;11.52;64.98
71105;BME280;58760;48.716;8.962;2023-04-15T08:24:29;95505.03;;;11.50;63.74
71105;BME280;58760;48.716;8.962;2023-04-15T08:26:55;95502.41;;;11.77;63.80
71105;BME280;58760;48.716;8.962;2023-04-15T08:29:21;95503.16;;;12.10;58.14
71105;BME280;58760;48.716;8.962;2023-04-15T08:31:47;95502.75;;;12.13;53.68
71105;BME280;58760;48.716;8.962;2023-04-15T08:34:13;95501.09;;;12.32;51.03
71105;BME280;58760;48.716;8.962;2023-04-15T08:36:39;95506.00;;;12.35;46.71
71105;BME280;58760;48.716;8.962;2023-04-15T08:39:05;95501.69;;;12.34;47.79
71105;BME280;58760;48.716;8.962;2023-04-15T08:44:13;95507.88;;;12.21;47.25
71105;BME280;58760;48.716;8.962;2023-04-15T08:46:40;95511.06;;;12.43;46.86
71105;BME280;58760;48.716;8.962;2023-04-15T08:49:09;95508.22;;;12.44;46.93
71105;BME280;58760;48.716;8.962;2023-04-15T08:51:36;95508.19;;;12.51;46.77
71105;BME280;58760;48.716;8.962;2023-04-15T08:54:02;95496.31;;;12.53;46.88
71105;BME280;58760;48.716;8.962;2023-04-15T08:56:30;95503.69;;;12.58;48.13
71105;BME280;58760;48.716;8.962;2023-04-15T08:58:58;95503.88;;;12.56;47.42
71105;BME280;58760;48.716;8.962;2023-04-15T09:01:25;95501.84;;;12.45;47.74
71105;BME280;58760;48.716;8.962;2023-04-15T09:03:51;95501.94;;;12.77;45.80
71105;BME280;58760;48.716;8.962;2023-04-15T09:06:19;95508.59;;;12.99;43.90
71105;BME280;58760;48.716;8.962;2023-04-15T09:08:45;95508.63;;;12.92;45.15
71105;BME280;58760;48.716;8.962;2023-04-15T09:11:10;95506.78;;;12.93;45.01
71105;BME280;58760;48.716;8.962;2023-04-15T09:13:36;95513.88;;;13.12;44.00
71105;BME280;58760;48.716;8.962;2023-04-15T09:16:04;95512.84;;;13.20;45.28
71105;BME280;58760;48.716;8.962;2023-04-15T09:18:32;95512.72;;;13.39;44.33
71105;BME280;58760;48.716;8.962;2023-04-15T09:21:09;95520.56;;;13.59;44.79
71105;BME280;58760;48.716;8.962;2023-04-15T09:23:52;95518.75;;;13.53;44.57
71105;BME280;58760;48.716;8.962;2023-04-15T09:26:18;95522.75;;;13.69;41.38
71105;BME280;58760;48.716;8.962;2023-04-15T09:28:44;95520.19;;;13.55;41.12
71105;BME280;58760;48.716;8.962;2023-04-15T09:31:09;95527.47;;;13.67;41.07
71105;BME280;58760;48.716;8.962;2023-04-15T09:33:35;95523.34;;;13.71;41.87
71105;BME280;58760;48.716;8.962;2023-04-15T09:36:18;95524.13;;;13.46;42.50
71105;BME280;58760;48.716;8.962;2023-04-15T09:39:03;95523.88;;;13.54;41.22
71105;BME280;58760;48.716;8.962;2023-04-15T09:41:29;95523.25;;;13.59;40.65
71105;BME280;58760;48.716;8.962;2023-04-15T09:43:55;95531.78;;;13.68;40.23
71105;BME280;58760;48.716;8.962;2023-04-15T09:46:40;95536.66;;;13.71;40.32
71105;BME280;58760;48.716;8.962;2023-04-15T09:49:07;95529.97;;;13.61;39.51
71105;BME280;58760;48.716;8.962;2023-04-15T09:51:36;95537.09;;;13.68;40.95
71105;BME280;58760;48.716;8.962;2023-04-15T09:54:02;95536.28;;;13.92;41.94
71105;BME280;58760;48.716;8.962;2023-04-15T09:56:37;95531.94;;;13.97;40.95
71105;BME280;58760;48.716;8.962;2023-04-15T09:59:06;95535.38;;;14.04;41.32
71105;BME280;58760;48.716;8.962;2023-04-15T10:01:32;95533.56;;;13.98;39.99
71105;BME280;58760;48.716;8.962;2023-04-15T10:03:58;95539.03;;;14.10;41.08
71105;BME280;58760;48.716;8.962;2023-04-15T10:06:27;95539.28;;;14.02;41.31
71105;BME280;58760;48.716;8.962;2023-04-15T10:08:53;95541.63;;;14.17;38.01
71105;BME280;58760;48.716;8.962;2023-04-15T10:11:19;95535.91;;;14.13;34.23
71105;BME280;58760;48.716;8.962;2023-04-15T10:13:48;95539.41;;;14.32;36.75
71105;BME280;58760;48.716;8.962;2023-04-15T10:16:16;95545.94;;;14.60;37.61
71105;BME280;58760;48.716;8.962;2023-04-15T10:18:45;95533.91;;;14.70;38.14
71105;BME280;58760;48.716;8.962;2023-04-15T10:21:11;95532.34;;;14.80;37.98
71105;BME280;58760;48.716;8.962;2023-04-15T10:23:38;95528.56;;;14.70;38.32
71105;BME280;58760;48.716;8.962;2023-04-15T10:26:04;95542.03;;;14.63;38.12
71105;BME280;58760;48.716;8.962;2023-04-15T10:28:30;95543.56;;;14.52;39.18
71105;BME280;58760;48.716;8.962;2023-04-15T10:30:56;95539.63;;;14.55;38.82
71105;BME280;58760;48.716;8.962;2023-04-15T10:33:24;95534.75;;;14.88;36.69
71105;BME280;58760;48.716;8.962;2023-04-15T10:35:51;95543.84;;;14.99;38.28
71105;BME280;58760;48.716;8.962;2023-04-15T10:38:37;95542.81;;;15.18;37.08
71105;BME280;58760;48.716;8.962;2023-04-15T10:43:44;95544.75;;;14.75;37.57
71105;BME280;58760;48.716;8.962;2023-04-15T10:46:09;95545.47;;;14.63;38.14
71105;BME280;58760;48.716;8.962;2023-04-15T10:48:35;95559.66;;;14.64;37.66
71105;BME280;58760;48.716;8.962;2023-04-15T10:51:00;95559.03;;;14.44;38.45
71105;BME280;58760;48.716;8.962;2023-04-15T10:53:29;95554.75;;;14.61;38.20
71105;BME280;58760;48.716;8.962;2023-04-15T10:55:57;95563.59;;;14.61;39.14
71105;BME280;58760;48.716;8.962;2023-04-15T10:58:23;95565.69;;;14.59;39.91
71105;BME280;58760;48.716;8.962;2023-04-15T11:00:52;95571.66;;;14.37;39.43
71105;BME280;58760;48.716;8.962;2023-04-15T11:03:36;95573.97;;;14.51;37.92
71105;BME280;58760;48.716;8.962;2023-04-15T11:06:02;95567.38;;;14.29;37.70
71105;BME280;58760;48.716;8.962;2023-04-15T11:08:57;95573.84;;;14.15;38.66
71105;BME280;58760;48.716;8.962;2023-04-15T11:14:26;95570.91;;;14.23;37.60
71105;BME280;58760;48.716;8.962;2023-04-15T11:16:51;95577.06;;;14.48;36.62
71105;BME280;58760;48.716;8.962;2023-04-15T11:19:17;95576.88;;;14.50;35.96
71105;BME280;58760;48.716;8.962;2023-04-15T11:21:43;95583.09;;;14.62;36.75
71105;BME280;58760;48.716;8.962;2023-04-15T11:24:08;95580.72;;;14.54;37.66
71105;BME280;58760;48.716;8.962;2023-04-15T11:26:34;95575.38;;;14.54;38.55
71105;BME280;58760;48.716;8.962;2023-04-15T11:28:59;95581.25;;;14.81;38.62
71105;BME280;58760;48.716;8.962;2023-04-15T11:31:26;95571.75;;;15.03;36.72
71105;BME280;58760;48.716;8.962;2023-04-15T11:33:58;95576.47;;;15.37;36.59
71105;BME280;58760;48.716;8.962;2023-04-15T11:36:25;95575.84;;;15.35;37.62
71105;BME280;58760;48.716;8.962;2023-04-15T11:38:51;95580.34;;;15.23;39.92
71105;BME280;58760;48.716;8.962;2023-04-15T11:41:21;95580.84;;;15.32;39.55
71105;BME280;58760;48.716;8.962;2023-04-15T11:43:47;95586.81;;;15.15;38.90
71105;BME280;58760;48.716;8.962;2023-04-15T11:46:12;95587.28;;;15.60;37.07
71105;BME280;58760;48.716;8.962;2023-04-15T11:48:41;95591.81;;;15.90;36.14
71105;BME280;58760;48.716;8.962;2023-04-15T11:51:08;95588.63;;;15.81;36.71
71105;BME280;58760;48.716;8.962;2023-04-15T11:53:40;95596.53;;;15.76;37.68
71105;BME280;58760;48.716;8.962;2023-04-15T11:56:15;95598.31;;;15.94;37.45
71105;BME280;58760;48.716;8.962;2023-04-15T11:58:41;95597.34;;;15.77;38.58
71105;BME280;58760;48.716;8.962;2023-04-15T12:01:07;95598.63;;;16.50;37.42
71105;BME280;58760;48.716;8.962;2023-04-15T12:03:37;95601.66;;;16.19;37.86
71105;BME280;58760;48.716;8.962;2023-04-15T12:11:20;95622.59;;;14.96;40.97
71105;BME280;58760;48.716;8.962;2023-04-15T12:13:47;95610.47;;;15.12;39.57
71105;BME280;58760;48.716;8.962;2023-04-15T12:16:23;95622.22;;;15.29;40.72
71105;BME280;58760;48.716;8.962;2023-04-15T12:18:53;95631.47;;;15.45;39.57
71105;BME280;58760;48.716;8.962;2023-04-15T12:21:24;95624.16;;;16.00;37.75
71105;BME280;58760;48.716;8.962;2023-04-15T12:23:55;95628.31;;;16.37;36.65
71105;BME280;58760;48.716;8.962;2023-04-15T12:26:42;95634.97;;;16.46;37.04
71105;BME280;58760;48.716;8.962;2023-04-15T12:29:10;95642.00;;;16.06;39.42
71105;BME280;58760;48.716;8.962;2023-04-15T12:31:36;95639.44;;;16.11;39.87
71105;BME280;58760;48.716;8.962;2023-04-15T12:34:03;95645.00;;;16.51;39.54
71105;BME280;58760;48.716;8.962;2023-04-15T12:36:31;95648.06;;;17.64;37.40
71105;BME280;58760;48.716;8.962;2023-04-15T12:39:01;95650.13;;;17.73;34.49
71105;BME280;58760;48.716;8.962;2023-04-15T12:41:27;95654.53;;;17.91;33.40
71105;BME280;58760;48.716;8.962;2023-04-15T12:43:53;95650.66;;;17.47;33.25
71105;BME280;58760;48.716;8.962;2023-04-15T12:46:18;95646.69;;;16.22;35.50
71105;BME280;58760;48.716;8.962;2023-04-15T12:48:44;95658.81;;;15.47;35.54
71105;BME280;58760;48.716;8.962;2023-04-15T12:51:09;95654.97;;;16.32;32.10
71105;BME280;58760;48.716;8.962;2023-04-15T12:53:35;95645.81;;;17.21;32.81
71105;BME280;58760;48.716;8.962;2023-04-15T12:56:01;95650.50;;;18.22;32.44
71105;BME280;58760;48.716;8.962;2023-04-15T12:58:26;95653.00;;;18.73;29.97
71105;BME280;58760;48.716;8.962;2023-04-15T13:00:52;95659.22;;;17.84;31.24
71105;BME280;58760;48.716;8.962;2023-04-15T13:03:17;95662.44;;;17.98;29.99
71105;BME280;58760;48.716;8.962;2023-04-15T13:05:43;95662.03;;;17.03;33.68
71105;BME280;58760;48.716;8.962;2023-04-15T13:08:08;95674.75;;;16.31;38.33
71105;BME280;58760;48.716;8.962;2023-04-15T13:10:34;95677.00;;;15.75;40.03
71105;BME280;58760;48.716;8.962;2023-04-15T13:13:03;95684.88;;;15.69;40.28
71105;BME280;58760;48.716;8.962;2023-04-15T13:15:28;95687.56;;;15.15;41.69
71105;BME280;58760;48.716;8.962;2023-04-15T13:17:54;95690.72;;;14.62;42.78
71105;BME280;58760;48.716;8.962;2023-04-15T13:20:19;95695.13;;;14.19;43.43